Orlando, Florida
Traffic Map
Current Weather Conditions
Orlando, Florida
Clear
Clear
26°
Feels Like: 29°
Wind Chill: 26° Ceiling: Unl
Heat Index: 29° Visibility: 10mi
Dew Point: 26° Wind: 6mph
Humidity: 97% Direction: 150° (SSE)
Pressure: 30.03in Gusts: 0mph
Raw Report DataKORL 172353Z 15005KT 10SM CLR 26/26 A3003 RMK AO2 RAE16 SLP171 P0001 60016 T02610256 10356 20250 51009
Traffic Incident Summary
Active as of:
Severity:
Category:
InformationThere was an issue retrieving the traffic information for this location. Please try a different location or try again shortly.
Advertisements